Aérodrome :
LOGIN :

S'inscrire | Disclaimer

   EN    FR    IT 

 










Légende :    VFR   VFR Marginal   IFR   IFR Intensif   IFR Très Intensif
Visi : 
Plafond : 
>= 8 km
>= 3000ft
5 à 8 km
1000 à 3000 ft
1500m à 5 km
500 à 1000 ft
800 à 1500m
200 à 500 ft
< 800m
< 200 ft
Symboles :   Orages  Brouillard  Fortes neiges  Fortes précipitations  Vent > 20 kt
SIGMETs :   Divers  Orages  Givrage  Turbulence  Onde Orograph.  Cendres Volcan.






- Altitude de l'aérodrome : 302 ft


LFPM - Melun Villaroche

DERNIER METAR :
  • 071300Z AUTO 24008KT 9999 BKN016 11/09 Q1018

METARs EXPIRÉS :
  • 071230Z AUTO 25008KT 9999 BKN013 11/09 Q1018
  • 071200Z AUTO 24009KT 9999 BKN011 OVC050 11/09 Q1018
  • 071130Z AUTO 23009KT 9999 SCT009 BKN049 11/09 Q1018
  • 071100Z AUTO 22009KT 9999 SCT008 OVC048 10/09 Q1018
  • 071030Z AUTO 23007KT 9999 FEW022 OVC049 10/09 Q1019

Prévision TAF périmée.
ATIS : +33 1 64 14 28 44



MET'MAP, la Météo Aéronautique d'un coup d'oeil ! - Copyright ORBIFLY Décembre 2007 - Disclaimer

ORBIFLY MET'MAP TEAM :

Programmation & Développement : Alexandra Zaïnal
Sur une idée originale de : Baudouin d'Aumeries
Assistance à la programmation : Marc-Olivier Méhu
Soutien technique & logistique : Manuel Goepfert

Contact : metmap@orbifly.com




SOURCES & CREDITS :

   NOAA